Pure Adrenalin — VJD3680 — position and weather

sailwx.info

Track history (hours):
 
Tides and Currents Weather Stations Pressure Air Temp Water Temp Dewpoint Dewpoint Depression Visibility Wind Speed Wind Dir Waves Ship Positions

Pure Adrenalin

Last reported at 2014-Sep-02 19:15 UTC. Time now 2014-Sep-02 21:28 UTC.
Position S 12°28' E 130°51'.

Length 21 m.

Type: Ship. MMSI: 503642100.

Date/timePositionNaut miles runAvg speedWind from/ knotsBaromVisibWave heightAir tempDewpointWater temp
2014-Sep-02 19:15S 12°28' E 130°51'1 1.0
2014-Sep-02 18:30S 12°28' E 130°51'6 6.2
2014-Sep-02 17:33S 12°25' E 130°46'1615.2
2014-Sep-02 16:30S 12°17' E 130°31'0 0.1
2014-Sep-02 15:30S 12°17' E 130°32'1 1.4
2014-Sep-02 14:31S 12°18' E 130°33'0 0.0
2014-Sep-02 13:28S 12°18' E 130°33'0 0.0
2014-Sep-02 12:31S 12°18' E 130°33'0 0.0
2014-Sep-02 11:31S 12°18' E 130°33'0 0.3
2014-Sep-02 10:33S 12°18' E 130°33'1918.9
2014-Sep-02 09:33S 12°28' E 130°49'2 1.1
2014-Sep-02 08:08S 12°28' E 130°51'1319.4
2014-Sep-02 07:29S 12°21' E 130°40'9 9.8
2014-Sep-02 06:33S 12°18' E 130°32'1716.5
2014-Sep-02 05:33S 12°27' E 130°46'5 4.7
2014-Sep-02 04:29S 12°22' E 130°43'1314.0
2014-Sep-02 03:33S 12°16' E 130°32'2 1.7
2014-Sep-02 02:24S 12°18' E 130°33'2 1.5
2014-Sep-02 01:22S 12°18' E 130°31'0 0.0
2014-Sep-02 00:25S 12°18' E 130°31'0 0.0
2014-Sep-01 23:33S 12°18' E 130°31'9 8.4
2014-Sep-01 22:32S 12°21' E 130°39'13 1.7
2014-Sep-01 14:29S 12°28' E 130°51'0 0.0
2014-Sep-01 13:32S 12°28' E 130°51'0 0.0
2014-Sep-01 12:29S 12°28' E 130°51'0 0.0
2014-Sep-01 11:32S 12°28' E 130°51'0 0.0
2014-Sep-01 10:29S 12°28' E 130°51'2 0.8
2014-Sep-01 07:29S 12°28' E 130°48'1819.0
2014-Sep-01 06:32S 12°18' E 130°33'2 1.7
2014-Sep-01 05:31S 12°19' E 130°32'0 0.3
2014-Sep-01 04:25S 12°18' E 130°32'1 1.6
2014-Sep-01 03:29S 12°18' E 130°33'2 2.3
2014-Sep-01 02:33S 12°20' E 130°34'1 1.3
2014-Sep-01 01:31S 12°18' E 130°34'3 2.5
2014-Sep-01 00:31S 12°19' E 130°36'17 8.2
2014-Aug-31 22:25S 12°28' E 130°51'0 0.0
2014-Aug-31 14:13S 12°28' E 130°51'0 0.0
2014-Aug-31 12:31S 12°28' E 130°51'0 0.0
2014-Aug-31 09:07S 12°28' E 130°51'0 0.0
2014-Aug-31 08:29S 12°28' E 130°51'2019.8
2014-Aug-31 07:29S 12°18' E 130°34'1717.0
2014-Aug-31 06:28S 12°27' E 130°48'7 7.2
2014-Aug-31 05:34S 12°23' E 130°43'1412.5
2014-Aug-31 04:24S 12°20' E 130°29'2 1.8
2014-Aug-31 03:33S 12°19' E 130°30'2 1.6
2014-Aug-31 02:33S 12°19' E 130°32'1 1.3
2014-Aug-31 01:33S 12°19' E 130°33'3 2.7
2014-Aug-31 00:33S 12°18' E 130°36'1 0.6
2014-Aug-30 23:33S 12°19' E 130°36'1 0.9
2014-Aug-30 22:30S 12°18' E 130°35'1616.1
2014-Aug-30 21:30S 12°27' E 130°49'2 0.3
2014-Aug-30 14:20S 12°28' E 130°51'0 0.0
2014-Aug-30 13:26S 12°28' E 130°51'0 0.0
2014-Aug-30 12:29S 12°28' E 130°51'0 0.0
2014-Aug-30 11:29S 12°28' E 130°51'0 0.0
2014-Aug-30 10:29S 12°28' E 130°51'0 0.0
2014-Aug-30 09:32S 12°28' E 130°51'0 0.0
2014-Aug-30 08:32S 12°28' E 130°51'7 7.1
2014-Aug-30 07:30S 12°24' E 130°45'1111.4
2014-Aug-30 06:33S 12°19' E 130°35'1 1.0
2014-Aug-30 05:30S 12°19' E 130°35'0 0.0
2014-Aug-30 04:33S 12°19' E 130°35'0 0.0
2014-Aug-30 03:33S 12°19' E 130°35'0 0.0
2014-Aug-30 02:33S 12°19' E 130°35'0 0.0
2014-Aug-30 01:25S 12°19' E 130°35'0 0.0
2014-Aug-30 00:25S 12°19' E 130°35'0 0.0
2014-Aug-29 23:28S 12°19' E 130°35'1 1.4
2014-Aug-29 22:31S 12°18' E 130°34'1414.6
2014-Aug-29 21:32S 12°25' E 130°47'5 1.7
2014-Aug-29 18:31S 12°28' E 130°51'0 0.0
2014-Aug-29 12:22S 12°28' E 130°51'7 1.4
2014-Aug-29 07:33S 12°24' E 130°45'4 4.2
2014-Aug-29 06:33S 12°22' E 130°42'11 5.0
2014-Aug-29 04:21S 12°28' E 130°51'1416.9
2014-Aug-29 03:33S 12°21' E 130°39'1 0.9
2014-Aug-29 02:33S 12°21' E 130°38'1210.9
2014-Aug-29 01:28S 12°27' E 130°48'1516.5
2014-Aug-29 00:33S 12°19' E 130°36'2 2.3
2014-Aug-28 23:33S 12°18' E 130°38'0 0.4
2014-Aug-28 22:33S 12°18' E 130°37'1313.1
2014-Aug-28 21:33S 12°26' E 130°47'4 1.7
2014-Aug-28 19:18S 12°28' E 130°51'0 0.0
2014-Aug-28 18:33S 12°28' E 130°51'0 0.0
2014-Aug-28 16:21S 12°28' E 130°51'0 0.0
2014-Aug-28 15:33S 12°28' E 130°51'0 0.0
2014-Aug-28 14:33S 12°28' E 130°51'0 0.0
2014-Aug-28 13:24S 12°28' E 130°51'0 0.0
2014-Aug-28 12:24S 12°28' E 130°51'0 0.0
2014-Aug-28 11:24S 12°28' E 130°51'0 0.0
2014-Aug-28 10:27S 12°28' E 130°51'0 0.0
2014-Aug-28 09:27S 12°28' E 130°51'0 0.0
2014-Aug-28 08:30S 12°28' E 130°51'1112.1
2014-Aug-28 07:33S 12°22' E 130°41'6 2.9
2014-Aug-28 05:33S 12°19' E 130°36'8 7.9
2014-Aug-28 04:33S 12°23' E 130°43'9 8.3
2014-Aug-28 03:28S 12°28' E 130°51'0 0.1
2014-Aug-28 02:28S 12°28' E 130°51'1111.3
2014-Aug-28 01:30S 12°22' E 130°41'6 6.5
2014-Aug-28 00:33S 12°19' E 130°36'0 0.0
2014-Aug-27 23:33S 12°19' E 130°36'0 0.4
2014-Aug-27 22:32S 12°19' E 130°36'1717.3
2014-Aug-27 21:33S 12°28' E 130°50'0 0.2
2014-Aug-27 20:13S 12°28' E 130°51'0 0.0
2014-Aug-27 19:31S 12°28' E 130°51'0 0.0
2014-Aug-27 18:31S 12°28' E 130°51'0 0.0
2014-Aug-27 16:28S 12°28' E 130°51'0 0.0
2014-Aug-27 15:19S 12°28' E 130°51'0 0.0
2014-Aug-27 12:22S 12°28' E 130°51'0 0.0
2014-Aug-27 10:10S 12°28' E 130°51'0 0.0
2014-Aug-27 09:25S 12°28' E 130°51'0 0.0
2014-Aug-27 08:28S 12°28' E 130°51'1314.4
2014-Aug-27 07:32S 12°21' E 130°39'3 2.9
2014-Aug-27 06:33S 12°19' E 130°37'1 0.8
2014-Aug-27 05:31S 12°19' E 130°36'0 0.0
2014-Aug-27 04:22S 12°19' E 130°36'1 1.0
2014-Aug-27 03:34S 12°20' E 130°36'7 3.2
2014-Aug-27 01:30S 12°22' E 130°42'6 5.8
2014-Aug-27 00:24S 12°19' E 130°36'0 0.0
2014-Aug-26 23:27S 12°19' E 130°36'0 0.1
2014-Aug-26 22:31S 12°19' E 130°36'17 8.6
2014-Aug-26 20:32S 12°28' E 130°51'1 0.1
2014-Aug-26 09:29S 12°28' E 130°51'1 0.7
2014-Aug-26 08:32S 12°28' E 130°51'1212.4
2014-Aug-26 07:33S 12°21' E 130°41'4 4.4
2014-Aug-26 06:32S 12°19' E 130°37'0 0.1
2014-Aug-26 05:28S 12°19' E 130°36'1212.0
2014-Aug-26 04:30S 12°26' E 130°46'1 0.6
2014-Aug-26 02:28S 12°26' E 130°47'1312.1
2014-Aug-26 01:25S 12°19' E 130°36'0 0.0
2014-Aug-26 00:28S 12°19' E 130°36'0 0.0
2014-Aug-25 23:19S 12°19' E 130°36'0 0.0
2014-Aug-25 22:31S 12°19' E 130°36'1010.5
2014-Aug-25 21:33S 12°24' E 130°45'4 1.7
2014-Aug-25 19:09S 12°28' E 130°48'1318.8
2014-Aug-25 18:28S 12°20' E 130°38'1 1.6
2014-Aug-25 17:33S 12°19' E 130°37'0 0.1
2014-Aug-25 16:33S 12°19' E 130°36'0 0.0
2014-Aug-25 15:22S 12°19' E 130°36'0 0.0
2014-Aug-25 14:25S 12°19' E 130°36'0 0.0
2014-Aug-25 13:25S 12°19' E 130°36'0 0.0
2014-Aug-25 12:25S 12°19' E 130°36'0 0.0
2014-Aug-25 11:28S 12°19' E 130°36'0 0.1
2014-Aug-25 10:28S 12°19' E 130°37'3 2.9
2014-Aug-25 09:31S 12°20' E 130°39'10 4.7
2014-Aug-25 07:27S 12°26' E 130°47'1112.6
2014-Aug-25 06:33S 12°19' E 130°38'10 9.6
2014-Aug-25 05:28S 12°25' E 130°46'1 1.1
2014-Aug-25 04:33S 12°25' E 130°46'1010.4
2014-Aug-25 03:33S 12°19' E 130°37'1716.6
2014-Aug-25 02:33S 12°28' E 130°51'1514.7
2014-Aug-25 01:33S 12°21' E 130°38'1514.3
2014-Aug-25 00:32S 12°28' E 130°51'1414.5
2014-Aug-24 23:33S 12°21' E 130°39'4 4.0
2014-Aug-24 22:33S 12°22' E 130°42'10 9.2
2014-Aug-24 21:28S 12°28' E 130°51'0 0.2
2014-Aug-24 19:19S 12°28' E 130°51'1 0.5
2014-Aug-24 18:23S 12°28' E 130°51'6 7.4
2014-Aug-24 17:33S 12°25' E 130°46'10 9.4
2014-Aug-24 16:28S 12°20' E 130°36'0 0.0
2014-Aug-24 15:28S 12°20' E 130°36'0 0.0
2014-Aug-24 14:28S 12°20' E 130°36'0 0.0
2014-Aug-24 13:31S 12°20' E 130°36'0 0.0
2014-Aug-24 12:28S 12°20' E 130°36'0 0.0
2014-Aug-24 11:31S 12°20' E 130°36'0 0.0
2014-Aug-24 10:31S 12°20' E 130°36'4 4.0
2014-Aug-24 09:33S 12°21' E 130°40'12 5.9
2014-Aug-24 07:33S 12°28' E 130°49'1414.0
2014-Aug-24 06:33S 12°20' E 130°38'9 9.2
2014-Aug-24 05:33S 12°25' E 130°46'3 3.2
2014-Aug-24 04:33S 12°23' E 130°43'8 7.1
2014-Aug-24 03:29S 12°20' E 130°36'4 4.1
2014-Aug-24 02:32S 12°21' E 130°40'10 8.8
2014-Aug-24 01:22S 12°27' E 130°48'1415.5
2014-Aug-24 00:28S 12°19' E 130°37'1 0.6
2014-Aug-23 23:25S 12°20' E 130°36'0 0.0
2014-Aug-23 22:25S 12°20' E 130°36'6 6.7
2014-Aug-23 21:32S 12°22' E 130°42'10 4.9
2014-Aug-23 19:29S 12°28' E 130°50'  
Track history (hours):
 
Tides and Currents Weather Stations Pressure Air Temp Water Temp Dewpoint Dewpoint Depression Visibility Wind Speed Wind Dir Waves Ship Positions

Pure Adrenalin

Last reported at 2014-Sep-02 19:15 UTC. Time now 2014-Sep-02 21:28 UTC.
Position S 12°28' E 130°51'.

Length 21 m.

Type: Ship. MMSI: 503642100.

Date/timePositionNaut miles runAvg speedWind from/ knotsBaromVisibWave heightAir tempDewpointWater temp
2014-Sep-02 19:15S 12°28' E 130°51'1 1.0
2014-Sep-02 18:30S 12°28' E 130°51'6 6.2
2014-Sep-02 17:33S 12°25' E 130°46'1615.2
2014-Sep-02 16:30S 12°17' E 130°31'0 0.1
2014-Sep-02 15:30S 12°17' E 130°32'1 1.4
2014-Sep-02 14:31S 12°18' E 130°33'0 0.0
2014-Sep-02 13:28S 12°18' E 130°33'0 0.0
2014-Sep-02 12:31S 12°18' E 130°33'0 0.0
2014-Sep-02 11:31S 12°18' E 130°33'0 0.3
2014-Sep-02 10:33S 12°18' E 130°33'1918.9
2014-Sep-02 09:33S 12°28' E 130°49'2 1.1
2014-Sep-02 08:08S 12°28' E 130°51'1319.4
2014-Sep-02 07:29S 12°21' E 130°40'9 9.8
2014-Sep-02 06:33S 12°18' E 130°32'1716.5
2014-Sep-02 05:33S 12°27' E 130°46'5 4.7
2014-Sep-02 04:29S 12°22' E 130°43'1314.0
2014-Sep-02 03:33S 12°16' E 130°32'2 1.7
2014-Sep-02 02:24S 12°18' E 130°33'2 1.5
2014-Sep-02 01:22S 12°18' E 130°31'0 0.0
2014-Sep-02 00:25S 12°18' E 130°31'0 0.0
2014-Sep-01 23:33S 12°18' E 130°31'9 8.4
2014-Sep-01 22:32S 12°21' E 130°39'13 1.7
2014-Sep-01 14:29S 12°28' E 130°51'0 0.0
2014-Sep-01 13:32S 12°28' E 130°51'0 0.0
2014-Sep-01 12:29S 12°28' E 130°51'0 0.0
2014-Sep-01 11:32S 12°28' E 130°51'0 0.0
2014-Sep-01 10:29S 12°28' E 130°51'2 0.8
2014-Sep-01 07:29S 12°28' E 130°48'1819.0
2014-Sep-01 06:32S 12°18' E 130°33'2 1.7
2014-Sep-01 05:31S 12°19' E 130°32'0 0.3
2014-Sep-01 04:25S 12°18' E 130°32'1 1.6
2014-Sep-01 03:29S 12°18' E 130°33'2 2.3
2014-Sep-01 02:33S 12°20' E 130°34'1 1.3
2014-Sep-01 01:31S 12°18' E 130°34'3 2.5
2014-Sep-01 00:31S 12°19' E 130°36'17 8.2
2014-Aug-31 22:25S 12°28' E 130°51'0 0.0
2014-Aug-31 14:13S 12°28' E 130°51'0 0.0
2014-Aug-31 12:31S 12°28' E 130°51'0 0.0
2014-Aug-31 09:07S 12°28' E 130°51'0 0.0
2014-Aug-31 08:29S 12°28' E 130°51'2019.8
2014-Aug-31 07:29S 12°18' E 130°34'1717.0
2014-Aug-31 06:28S 12°27' E 130°48'7 7.2
2014-Aug-31 05:34S 12°23' E 130°43'1412.5
2014-Aug-31 04:24S 12°20' E 130°29'2 1.8
2014-Aug-31 03:33S 12°19' E 130°30'2 1.6
2014-Aug-31 02:33S 12°19' E 130°32'1 1.3
2014-Aug-31 01:33S 12°19' E 130°33'3 2.7
2014-Aug-31 00:33S 12°18' E 130°36'1 0.6
2014-Aug-30 23:33S 12°19' E 130°36'1 0.9
2014-Aug-30 22:30S 12°18' E 130°35'1616.1
2014-Aug-30 21:30S 12°27' E 130°49'2 0.3
2014-Aug-30 14:20S 12°28' E 130°51'0 0.0
2014-Aug-30 13:26S 12°28' E 130°51'0 0.0
2014-Aug-30 12:29S 12°28' E 130°51'0 0.0
2014-Aug-30 11:29S 12°28' E 130°51'0 0.0
2014-Aug-30 10:29S 12°28' E 130°51'0 0.0
2014-Aug-30 09:32S 12°28' E 130°51'0 0.0
2014-Aug-30 08:32S 12°28' E 130°51'7 7.1
2014-Aug-30 07:30S 12°24' E 130°45'1111.4
2014-Aug-30 06:33S 12°19' E 130°35'1 1.0
2014-Aug-30 05:30S 12°19' E 130°35'0 0.0
2014-Aug-30 04:33S 12°19' E 130°35'0 0.0
2014-Aug-30 03:33S 12°19' E 130°35'0 0.0
2014-Aug-30 02:33S 12°19' E 130°35'0 0.0
2014-Aug-30 01:25S 12°19' E 130°35'0 0.0
2014-Aug-30 00:25S 12°19' E 130°35'0 0.0
2014-Aug-29 23:28S 12°19' E 130°35'1 1.4
2014-Aug-29 22:31S 12°18' E 130°34'1414.6
2014-Aug-29 21:32S 12°25' E 130°47'5 1.7
2014-Aug-29 18:31S 12°28' E 130°51'0 0.0
2014-Aug-29 12:22S 12°28' E 130°51'7 1.4
2014-Aug-29 07:33S 12°24' E 130°45'4 4.2
2014-Aug-29 06:33S 12°22' E 130°42'11 5.0
2014-Aug-29 04:21S 12°28' E 130°51'1416.9
2014-Aug-29 03:33S 12°21' E 130°39'1 0.9
2014-Aug-29 02:33S 12°21' E 130°38'1210.9
2014-Aug-29 01:28S 12°27' E 130°48'1516.5
2014-Aug-29 00:33S 12°19' E 130°36'2 2.3
2014-Aug-28 23:33S 12°18' E 130°38'0 0.4
2014-Aug-28 22:33S 12°18' E 130°37'1313.1
2014-Aug-28 21:33S 12°26' E 130°47'4 1.7
2014-Aug-28 19:18S 12°28' E 130°51'0 0.0
2014-Aug-28 18:33S 12°28' E 130°51'0 0.0
2014-Aug-28 16:21S 12°28' E 130°51'0 0.0
2014-Aug-28 15:33S 12°28' E 130°51'0 0.0
2014-Aug-28 14:33S 12°28' E 130°51'0 0.0
2014-Aug-28 13:24S 12°28' E 130°51'0 0.0
2014-Aug-28 12:24S 12°28' E 130°51'0 0.0
2014-Aug-28 11:24S 12°28' E 130°51'0 0.0
2014-Aug-28 10:27S 12°28' E 130°51'0 0.0
2014-Aug-28 09:27S 12°28' E 130°51'0 0.0
2014-Aug-28 08:30S 12°28' E 130°51'1112.1
2014-Aug-28 07:33S 12°22' E 130°41'6 2.9
2014-Aug-28 05:33S 12°19' E 130°36'8 7.9
2014-Aug-28 04:33S 12°23' E 130°43'9 8.3
2014-Aug-28 03:28S 12°28' E 130°51'0 0.1
2014-Aug-28 02:28S 12°28' E 130°51'1111.3
2014-Aug-28 01:30S 12°22' E 130°41'6 6.5
2014-Aug-28 00:33S 12°19' E 130°36'0 0.0
2014-Aug-27 23:33S 12°19' E 130°36'0 0.4
2014-Aug-27 22:32S 12°19' E 130°36'1717.3
2014-Aug-27 21:33S 12°28' E 130°50'0 0.2
2014-Aug-27 20:13S 12°28' E 130°51'0 0.0
2014-Aug-27 19:31S 12°28' E 130°51'0 0.0
2014-Aug-27 18:31S 12°28' E 130°51'0 0.0
2014-Aug-27 16:28S 12°28' E 130°51'0 0.0
2014-Aug-27 15:19S 12°28' E 130°51'0 0.0
2014-Aug-27 12:22S 12°28' E 130°51'0 0.0
2014-Aug-27 10:10S 12°28' E 130°51'0 0.0
2014-Aug-27 09:25S 12°28' E 130°51'0 0.0
2014-Aug-27 08:28S 12°28' E 130°51'1314.4
2014-Aug-27 07:32S 12°21' E 130°39'3 2.9
2014-Aug-27 06:33S 12°19' E 130°37'1 0.8
2014-Aug-27 05:31S 12°19' E 130°36'0 0.0
2014-Aug-27 04:22S 12°19' E 130°36'1 1.0
2014-Aug-27 03:34S 12°20' E 130°36'7 3.2
2014-Aug-27 01:30S 12°22' E 130°42'6 5.8
2014-Aug-27 00:24S 12°19' E 130°36'0 0.0
2014-Aug-26 23:27S 12°19' E 130°36'0 0.1
2014-Aug-26 22:31S 12°19' E 130°36'17 8.6
2014-Aug-26 20:32S 12°28' E 130°51'1 0.1
2014-Aug-26 09:29S 12°28' E 130°51'1 0.7
2014-Aug-26 08:32S 12°28' E 130°51'1212.4
2014-Aug-26 07:33S 12°21' E 130°41'4 4.4
2014-Aug-26 06:32S 12°19' E 130°37'0 0.1
2014-Aug-26 05:28S 12°19' E 130°36'1212.0
2014-Aug-26 04:30S 12°26' E 130°46'1 0.6
2014-Aug-26 02:28S 12°26' E 130°47'1312.1
2014-Aug-26 01:25S 12°19' E 130°36'0 0.0
2014-Aug-26 00:28S 12°19' E 130°36'0 0.0
2014-Aug-25 23:19S 12°19' E 130°36'0 0.0
2014-Aug-25 22:31S 12°19' E 130°36'1010.5
2014-Aug-25 21:33S 12°24' E 130°45'4 1.7
2014-Aug-25 19:09S 12°28' E 130°48'1318.8
2014-Aug-25 18:28S 12°20' E 130°38'1 1.6
2014-Aug-25 17:33S 12°19' E 130°37'0 0.1
2014-Aug-25 16:33S 12°19' E 130°36'0 0.0
2014-Aug-25 15:22S 12°19' E 130°36'0 0.0
2014-Aug-25 14:25S 12°19' E 130°36'0 0.0
2014-Aug-25 13:25S 12°19' E 130°36'0 0.0
2014-Aug-25 12:25S 12°19' E 130°36'0 0.0
2014-Aug-25 11:28S 12°19' E 130°36'0 0.1
2014-Aug-25 10:28S 12°19' E 130°37'3 2.9
2014-Aug-25 09:31S 12°20' E 130°39'10 4.7
2014-Aug-25 07:27S 12°26' E 130°47'1112.6
2014-Aug-25 06:33S 12°19' E 130°38'10 9.6
2014-Aug-25 05:28S 12°25' E 130°46'1 1.1
2014-Aug-25 04:33S 12°25' E 130°46'1010.4
2014-Aug-25 03:33S 12°19' E 130°37'1716.6
2014-Aug-25 02:33S 12°28' E 130°51'1514.7
2014-Aug-25 01:33S 12°21' E 130°38'1514.3
2014-Aug-25 00:32S 12°28' E 130°51'1414.5
2014-Aug-24 23:33S 12°21' E 130°39'4 4.0
2014-Aug-24 22:33S 12°22' E 130°42'10 9.2
2014-Aug-24 21:28S 12°28' E 130°51'0 0.2
2014-Aug-24 19:19S 12°28' E 130°51'1 0.5
2014-Aug-24 18:23S 12°28' E 130°51'6 7.4
2014-Aug-24 17:33S 12°25' E 130°46'10 9.4
2014-Aug-24 16:28S 12°20' E 130°36'0 0.0
2014-Aug-24 15:28S 12°20' E 130°36'0 0.0
2014-Aug-24 14:28S 12°20' E 130°36'0 0.0
2014-Aug-24 13:31S 12°20' E 130°36'0 0.0
2014-Aug-24 12:28S 12°20' E 130°36'0 0.0
2014-Aug-24 11:31S 12°20' E 130°36'0 0.0
2014-Aug-24 10:31S 12°20' E 130°36'4 4.0
2014-Aug-24 09:33S 12°21' E 130°40'12 5.9
2014-Aug-24 07:33S 12°28' E 130°49'1414.0
2014-Aug-24 06:33S 12°20' E 130°38'9 9.2
2014-Aug-24 05:33S 12°25' E 130°46'3 3.2
2014-Aug-24 04:33S 12°23' E 130°43'8 7.1
2014-Aug-24 03:29S 12°20' E 130°36'4 4.1
2014-Aug-24 02:32S 12°21' E 130°40'10 8.8
2014-Aug-24 01:22S 12°27' E 130°48'1415.5
2014-Aug-24 00:28S 12°19' E 130°37'1 0.6
2014-Aug-23 23:25S 12°20' E 130°36'0 0.0
2014-Aug-23 22:25S 12°20' E 130°36'6 6.7
2014-Aug-23 21:32S 12°22' E 130°42'10 4.9
2014-Aug-23 19:29S 12°28' E 130°50'  

Dump ship's entire track history